createdAt,value
2022-12-12T00:01:48.514Z,9.32
2022-12-12T00:04:15.193Z,9.02
2022-12-12T00:06:41.807Z,8.00
2022-12-12T00:09:09.557Z,9.70
2022-12-12T00:11:36.153Z,9.73
2022-12-12T00:14:03.206Z,9.65
2022-12-12T00:16:30.321Z,10.18
2022-12-12T00:18:57.068Z,9.53
2022-12-12T00:21:26.886Z,9.75
2022-12-12T00:23:53.896Z,9.18
2022-12-12T00:26:27.199Z,11.05
2022-12-12T00:28:54.423Z,9.90
2022-12-12T00:31:21.456Z,10.47
2022-12-12T00:33:50.262Z,10.07
2022-12-12T00:36:23.862Z,8.63
2022-12-12T00:38:51.833Z,9.30
2022-12-12T00:41:18.667Z,10.70
2022-12-12T00:43:45.312Z,10.20
2022-12-12T00:46:20.897Z,10.73
2022-12-12T00:48:48.140Z,9.95
2022-12-12T00:51:18.770Z,9.75
2022-12-12T00:53:45.850Z,9.05
2022-12-12T00:56:14.346Z,9.77
2022-12-12T00:58:40.942Z,8.32
2022-12-12T01:01:12.783Z,9.10
2022-12-12T01:03:41.542Z,9.68
2022-12-12T01:06:09.018Z,9.88
2022-12-12T01:08:35.643Z,9.53
2022-12-12T01:11:02.450Z,7.95
2022-12-12T01:13:30.011Z,10.48
2022-12-12T01:15:56.743Z,10.57
2022-12-12T01:18:23.430Z,8.90
2022-12-12T01:20:49.974Z,10.00
2022-12-12T01:23:16.568Z,9.27
2022-12-12T01:25:43.165Z,9.90
2022-12-12T01:28:10.421Z,9.02
2022-12-12T01:30:37.524Z,11.07
2022-12-12T01:33:04.270Z,10.00
2022-12-12T01:35:32.785Z,10.85
2022-12-12T01:37:59.316Z,10.52
2022-12-12T01:40:30.726Z,8.52
2022-12-12T01:42:57.650Z,11.07
2022-12-12T01:46:03.842Z,10.57
2022-12-12T01:48:56.904Z,9.60
2022-12-12T01:51:26.440Z,9.27
2022-12-12T01:54:00.618Z,10.68
2022-12-12T01:56:27.302Z,12.30
2022-12-12T01:58:55.572Z,11.30
2022-12-12T02:01:23.400Z,10.50
2022-12-12T02:03:50.295Z,13.43
2022-12-12T02:06:22.664Z,11.68
2022-12-12T02:08:51.343Z,11.77
2022-12-12T02:11:18.065Z,12.03
2022-12-12T02:13:45.269Z,11.02
2022-12-12T02:16:39.215Z,14.82
2022-12-12T02:19:40.502Z,11.40
2022-12-12T02:22:27.938Z,11.95
2022-12-12T02:25:21.089Z,11.30
2022-12-12T02:28:29.568Z,11.07
2022-12-12T02:31:16.553Z,12.45
2022-12-12T02:33:49.324Z,10.93
2022-12-12T02:36:44.778Z,9.90
2022-12-12T02:39:29.610Z,9.03
2022-12-12T02:42:00.745Z,10.77
2022-12-12T02:44:43.707Z,10.10
2022-12-12T02:47:19.529Z,8.18
2022-12-12T02:49:55.163Z,9.15
2022-12-12T02:52:22.714Z,7.30
2022-12-12T02:54:49.363Z,11.95
2022-12-12T02:57:21.261Z,10.18
2022-12-12T03:00:00.409Z,11.77
2022-12-12T03:02:45.283Z,9.60
2022-12-12T03:06:02.665Z,9.80
2022-12-12T03:08:59.303Z,14.07
2022-12-12T03:11:52.284Z,10.77
2022-12-12T03:14:44.311Z,11.82
2022-12-12T03:17:21.818Z,14.20
2022-12-12T03:20:17.285Z,11.47
2022-12-12T03:22:55.312Z,10.00
2022-12-12T03:26:02.710Z,10.38
2022-12-12T03:28:39.526Z,15.38
2022-12-12T03:31:10.727Z,11.25
2022-12-12T03:33:44.164Z,7.37
2022-12-12T03:36:19.910Z,12.82
2022-12-12T03:38:57.396Z,10.30
2022-12-12T03:41:31.070Z,11.07
2022-12-12T03:44:11.374Z,9.57
2022-12-12T03:46:47.973Z,10.53
2022-12-12T03:49:23.460Z,9.90
2022-12-12T03:51:57.337Z,10.40
2022-12-12T03:54:47.790Z,13.93
2022-12-12T03:57:23.192Z,14.45
2022-12-12T04:00:03.376Z,12.00
2022-12-12T04:03:27.511Z,10.05
2022-12-12T04:10:00.081Z,10.73
2022-12-12T04:16:12.215Z,11.40
2022-12-12T04:19:14.023Z,10.18
2022-12-12T04:22:13.999Z,13.20
2022-12-12T04:24:59.539Z,8.95
2022-12-12T04:27:31.047Z,8.82
2022-12-12T04:30:25.211Z,10.73
2022-12-12T04:33:33.097Z,11.13
2022-12-12T04:36:44.508Z,10.65
2022-12-12T04:39:39.836Z,10.90
2022-12-12T04:42:11.107Z,10.50
2022-12-12T04:45:01.121Z,10.60
2022-12-12T04:47:54.407Z,9.32
2022-12-12T04:50:29.859Z,10.00
2022-12-12T04:53:01.557Z,8.63
2022-12-12T04:55:34.111Z,9.23
2022-12-12T04:58:02.543Z,11.13
2022-12-12T05:00:48.062Z,8.60
2022-12-12T05:03:25.490Z,8.90
2022-12-12T05:06:00.061Z,9.55
2022-12-12T05:08:39.347Z,8.02
2022-12-12T05:11:39.302Z,9.93
2022-12-12T05:17:03.342Z,11.15
2022-12-12T05:19:30.159Z,10.55
2022-12-12T05:21:57.077Z,9.40
2022-12-12T05:24:23.678Z,8.93
2022-12-12T05:30:22.967Z,9.75
2022-12-12T05:32:52.563Z,10.07
2022-12-12T05:35:19.279Z,10.77
2022-12-12T05:37:51.931Z,10.37
2022-12-12T05:40:20.597Z,9.70
2022-12-12T05:42:48.438Z,10.48
2022-12-12T05:45:31.875Z,8.93
2022-12-12T05:47:59.722Z,9.73
2022-12-12T05:50:28.623Z,8.43
2022-12-12T05:52:55.266Z,10.65
2022-12-12T05:55:31.639Z,10.32
2022-12-12T05:58:30.047Z,10.38
2022-12-12T06:01:02.998Z,10.82
2022-12-12T06:03:32.136Z,10.27
2022-12-12T06:05:59.082Z,10.10
2022-12-12T06:08:25.714Z,9.45
2022-12-12T06:10:59.415Z,10.85
2022-12-12T06:13:47.652Z,10.57
2022-12-12T06:16:35.528Z,10.43
2022-12-12T06:19:06.453Z,10.43
2022-12-12T06:21:33.214Z,12.05
2022-12-12T06:24:37.750Z,10.32
2022-12-12T06:27:07.737Z,9.90
2022-12-12T06:29:35.761Z,11.27
2022-12-12T06:32:02.371Z,11.07
2022-12-12T06:34:28.829Z,11.38
2022-12-12T06:36:55.406Z,11.57
2022-12-12T06:39:36.635Z,10.18
2022-12-12T06:42:03.812Z,10.37
2022-12-12T06:44:30.753Z,11.35
2022-12-12T06:46:57.333Z,10.77
2022-12-12T06:49:38.598Z,10.85
2022-12-12T06:52:21.829Z,10.32
2022-12-12T06:57:55.493Z,9.77
2022-12-12T07:00:22.144Z,11.10
2022-12-12T07:02:48.741Z,11.18
2022-12-12T07:05:15.684Z,10.30
2022-12-12T07:08:02.969Z,10.53
2022-12-12T07:10:38.622Z,10.20
2022-12-12T07:13:05.206Z,11.18
2022-12-12T07:15:47.050Z,11.05
2022-12-12T07:18:24.423Z,9.32
2022-12-12T07:20:51.235Z,9.40
2022-12-12T07:23:46.833Z,9.52
2022-12-12T07:26:19.975Z,9.70
2022-12-12T07:28:52.537Z,10.70
2022-12-12T07:31:21.667Z,11.90
2022-12-12T07:33:57.693Z,11.03
2022-12-12T07:36:24.224Z,11.05
2022-12-12T07:39:17.365Z,11.13
2022-12-12T07:41:47.223Z,12.40
2022-12-12T07:44:13.832Z,10.75
2022-12-12T07:46:40.910Z,9.63
2022-12-12T07:49:07.507Z,11.10
2022-12-12T07:51:53.963Z,8.70
2022-12-12T07:54:25.849Z,11.70
2022-12-12T07:56:55.622Z,11.80
2022-12-12T07:59:47.580Z,12.40
2022-12-12T08:02:23.154Z,10.88
2022-12-12T08:05:02.646Z,11.38
2022-12-12T08:07:35.162Z,11.80
2022-12-12T08:10:02.558Z,11.88
2022-12-12T08:12:30.106Z,11.23
2022-12-12T08:15:16.427Z,12.23
2022-12-12T08:17:53.456Z,11.77
2022-12-12T08:20:20.118Z,11.65
2022-12-12T08:23:05.880Z,11.57
2022-12-12T08:25:33.545Z,11.70
2022-12-12T08:28:00.097Z,11.57
2022-12-12T08:30:27.962Z,11.63
2022-12-12T08:32:54.603Z,12.82
2022-12-12T08:35:32.977Z,12.18
2022-12-12T08:37:59.915Z,10.27
2022-12-12T08:40:40.319Z,13.35
2022-12-12T08:43:07.160Z,12.95
2022-12-12T08:45:45.106Z,12.60
2022-12-12T08:48:14.837Z,12.30
2022-12-12T08:50:41.790Z,13.67
2022-12-12T08:53:15.530Z,13.88
2022-12-12T08:55:42.105Z,12.25
2022-12-12T08:58:08.793Z,11.63
2022-12-12T09:00:56.833Z,11.60
2022-12-12T09:03:29.012Z,13.53
2022-12-12T09:05:56.318Z,11.48
2022-12-12T09:08:24.259Z,10.43
2022-12-12T09:10:51.078Z,14.07
2022-12-12T09:13:19.185Z,12.63
2022-12-12T09:15:56.371Z,10.33
2022-12-12T09:18:24.059Z,9.02
2022-12-12T09:20:57.733Z,10.05
2022-12-12T09:23:33.462Z,10.40
2022-12-12T09:26:06.115Z,9.45
2022-12-12T09:31:27.830Z,12.80
2022-12-12T09:34:01.454Z,12.35
2022-12-12T09:36:28.178Z,13.00
2022-12-12T09:38:54.810Z,13.07
2022-12-12T09:41:36.582Z,13.97
2022-12-12T09:47:17.761Z,12.63
2022-12-12T09:50:06.217Z,14.00
2022-12-12T09:52:36.549Z,12.23
2022-12-12T09:55:23.071Z,11.13
2022-12-12T09:58:36.434Z,7.00
2022-12-12T10:01:21.444Z,7.07
2022-12-12T10:03:57.071Z,12.32
2022-12-12T10:06:40.384Z,12.75
2022-12-12T10:09:46.823Z,7.90
2022-12-12T10:12:16.444Z,8.75
2022-12-12T10:14:46.588Z,13.07
2022-12-12T10:17:20.554Z,9.15
2022-12-12T10:19:55.813Z,11.48
2022-12-12T10:22:30.495Z,9.40
2022-12-12T10:25:06.367Z,13.05
2022-12-12T10:27:33.075Z,11.63
2022-12-12T10:30:13.850Z,11.45
2022-12-12T10:33:10.494Z,10.18
2022-12-12T10:35:52.708Z,11.03
2022-12-12T10:38:48.363Z,11.07
2022-12-12T10:42:04.703Z,11.55
2022-12-12T10:45:00.142Z,11.65
2022-12-12T10:47:26.926Z,11.70
2022-12-12T10:50:31.587Z,10.57
2022-12-12T10:52:58.165Z,8.70
2022-12-12T10:55:56.918Z,11.60
2022-12-12T10:58:28.684Z,11.95
2022-12-12T11:01:04.551Z,12.10
2022-12-12T11:03:45.280Z,12.43
2022-12-12T11:06:17.356Z,11.65
2022-12-12T11:08:59.994Z,10.75
2022-12-12T11:11:29.359Z,11.30
2022-12-12T11:14:01.857Z,11.45
2022-12-12T11:16:39.450Z,12.47
2022-12-12T11:19:24.956Z,10.77
2022-12-12T11:21:53.726Z,10.95
2022-12-12T11:24:30.583Z,11.60
2022-12-12T11:27:03.136Z,10.30
2022-12-12T11:29:51.824Z,11.53
2022-12-12T11:32:25.562Z,8.50
2022-12-12T11:34:58.990Z,10.52
2022-12-12T11:37:33.351Z,12.18
2022-12-12T11:40:00.589Z,11.23
2022-12-12T11:42:31.444Z,11.80
2022-12-12T11:45:20.411Z,9.65
2022-12-12T11:47:48.758Z,8.57
2022-12-12T11:50:25.819Z,9.18
2022-12-12T11:52:56.420Z,11.77
2022-12-12T11:55:37.092Z,10.73
2022-12-12T11:58:29.191Z,8.68
2022-12-12T12:01:07.180Z,11.00
2022-12-12T12:04:08.500Z,12.00
2022-12-12T12:06:46.691Z,11.32
2022-12-12T12:09:32.932Z,10.57
2022-12-12T12:12:10.351Z,10.98
2022-12-12T12:15:07.054Z,11.10
2022-12-12T12:18:19.759Z,8.63
2022-12-12T12:21:26.376Z,11.60
2022-12-12T12:24:25.589Z,9.93
2022-12-12T12:27:07.364Z,10.32
2022-12-12T12:30:26.568Z,10.73
2022-12-12T12:33:16.752Z,9.45
2022-12-12T12:35:51.604Z,10.25
2022-12-12T12:38:23.907Z,10.37
2022-12-12T12:41:16.348Z,10.43
2022-12-12T12:44:08.089Z,9.65
2022-12-12T12:47:18.003Z,9.88
2022-12-12T12:49:51.593Z,10.25
2022-12-12T12:52:24.258Z,10.20
2022-12-12T12:54:56.824Z,10.45
2022-12-12T12:57:32.735Z,9.80
2022-12-12T13:00:05.121Z,9.13
2022-12-12T13:03:03.983Z,9.07
2022-12-12T13:05:42.708Z,10.10
2022-12-12T13:08:24.643Z,7.10
2022-12-12T13:10:56.723Z,8.95
2022-12-12T13:13:37.599Z,8.68
2022-12-12T13:16:25.959Z,8.43
2022-12-12T13:19:11.470Z,9.10
2022-12-12T13:21:56.535Z,9.10
2022-12-12T13:24:28.515Z,8.88
2022-12-12T13:27:34.686Z,8.73
2022-12-12T13:30:16.419Z,8.95
2022-12-12T13:33:21.367Z,7.17
2022-12-12T13:35:54.422Z,8.20
2022-12-12T13:38:32.676Z,8.23
2022-12-12T13:41:06.456Z,7.75
2022-12-12T13:43:55.173Z,7.32
2022-12-12T13:46:44.061Z,8.53
2022-12-12T13:49:15.676Z,8.63
2022-12-12T13:51:44.400Z,6.93
2022-12-12T13:54:14.190Z,7.38
2022-12-12T13:57:08.266Z,7.97
2022-12-12T14:00:17.877Z,8.73
2022-12-12T14:02:55.326Z,8.27
2022-12-12T14:05:28.853Z,8.30
2022-12-12T14:08:02.752Z,7.63
2022-12-12T14:10:36.968Z,7.68
2022-12-12T14:13:21.615Z,6.60
2022-12-12T14:16:17.038Z,7.70
2022-12-12T14:19:22.674Z,7.30
2022-12-12T14:21:49.373Z,6.85
2022-12-12T14:24:44.464Z,7.35
2022-12-12T14:27:14.658Z,7.70
2022-12-12T14:29:43.752Z,7.78
2022-12-12T14:32:43.772Z,8.27
2022-12-12T14:35:45.036Z,7.15
2022-12-12T14:38:41.825Z,8.00
2022-12-12T14:41:32.714Z,8.17
2022-12-12T14:44:35.582Z,8.23
2022-12-12T14:46:52.123Z,9.38
2022-12-12T14:49:19.232Z,9.20
2022-12-12T14:51:49.717Z,8.73
2022-12-12T14:54:19.921Z,8.67
2022-12-12T14:56:56.378Z,8.90
2022-12-12T14:59:29.763Z,8.48
2022-12-12T15:02:41.347Z,9.32
2022-12-12T15:05:08.744Z,10.13
2022-12-12T15:07:40.658Z,9.43
2022-12-12T15:10:26.569Z,9.27
2022-12-12T15:12:53.250Z,8.25
2022-12-12T15:15:27.658Z,10.05
2022-12-12T15:17:57.230Z,9.07
2022-12-12T15:20:28.113Z,9.00
2022-12-12T15:22:57.718Z,9.35
2022-12-12T15:25:31.529Z,9.60
2022-12-12T15:27:58.898Z,9.57
2022-12-12T15:30:42.266Z,9.27
2022-12-12T15:33:36.568Z,10.33
2022-12-12T15:36:04.967Z,9.57
2022-12-12T15:38:33.560Z,9.32
2022-12-12T15:41:06.636Z,8.27
2022-12-12T15:43:36.152Z,8.52
2022-12-12T15:46:16.245Z,9.43
2022-12-12T15:48:47.100Z,8.93
2022-12-12T15:51:18.349Z,9.43
2022-12-12T15:53:50.800Z,8.15
2022-12-12T15:56:20.261Z,8.93
2022-12-12T15:58:53.096Z,9.50
2022-12-12T16:01:25.421Z,8.82
2022-12-12T16:04:10.850Z,9.40
2022-12-12T16:06:42.953Z,9.07
2022-12-12T16:09:25.752Z,8.50
2022-12-12T16:11:57.068Z,8.77
2022-12-12T16:14:26.545Z,8.32
2022-12-12T16:17:04.463Z,9.70
2022-12-12T16:19:41.018Z,9.35
2022-12-12T16:22:13.612Z,9.32
2022-12-12T16:24:53.996Z,9.47
2022-12-12T16:27:21.125Z,9.35
2022-12-12T16:29:48.588Z,9.18
2022-12-12T16:32:18.299Z,10.25
2022-12-12T16:34:45.049Z,9.85
2022-12-12T16:37:18.076Z,10.00
2022-12-12T16:39:45.107Z,10.48
2022-12-12T16:42:14.025Z,11.82
2022-12-12T16:44:40.575Z,11.70
2022-12-12T16:47:15.845Z,13.40
2022-12-12T16:49:42.809Z,13.37
2022-12-12T16:52:12.804Z,12.20
2022-12-12T16:54:40.370Z,12.25
2022-12-12T16:57:07.128Z,11.80
2022-12-12T16:59:33.814Z,12.35
2022-12-12T17:02:00.577Z,10.73
2022-12-12T17:04:27.647Z,11.50
2022-12-12T17:06:54.609Z,11.25
2022-12-12T17:09:25.471Z,11.65
2022-12-12T17:11:55.115Z,10.77
2022-12-12T17:14:24.651Z,10.40
2022-12-12T17:16:53.567Z,11.48
2022-12-12T17:19:20.328Z,13.05
2022-12-12T17:21:46.966Z,12.80
2022-12-12T17:24:13.987Z,13.07
2022-12-12T17:26:40.848Z,13.47
2022-12-12T17:29:08.455Z,10.65
2022-12-12T17:31:36.419Z,12.52
2022-12-12T17:34:04.165Z,12.02
2022-12-12T17:36:31.103Z,13.52
2022-12-12T17:38:58.036Z,15.93
2022-12-12T17:41:25.203Z,15.13
2022-12-12T17:43:55.436Z,17.67
2022-12-12T17:46:23.843Z,14.68
2022-12-12T17:48:51.190Z,15.18
2022-12-12T17:51:19.800Z,12.33
2022-12-12T17:53:47.078Z,13.70
2022-12-12T17:56:17.713Z,13.98
2022-12-12T17:58:46.688Z,15.50
2022-12-12T18:01:21.860Z,14.55
2022-12-12T18:03:49.144Z,13.80
2022-12-12T18:06:16.974Z,13.77
2022-12-12T18:08:44.504Z,13.38
2022-12-12T18:11:19.721Z,15.38
2022-12-12T18:13:49.860Z,15.70
2022-12-12T18:16:18.061Z,14.57
2022-12-12T18:18:44.914Z,16.30
2022-12-12T18:24:08.508Z,14.07
2022-12-12T18:26:35.149Z,12.55
2022-12-12T18:29:11.125Z,12.10
2022-12-12T18:31:45.084Z,12.50
2022-12-12T18:34:11.803Z,13.05
2022-12-12T18:36:39.384Z,12.50
2022-12-12T18:39:19.912Z,12.18
2022-12-12T18:41:46.522Z,11.40
2022-12-12T18:44:30.210Z,11.50
2022-12-12T18:47:04.015Z,12.25
2022-12-12T18:49:30.741Z,11.52
2022-12-12T18:51:57.296Z,10.82
2022-12-12T18:54:23.845Z,10.97
2022-12-12T18:56:50.499Z,10.00
2022-12-12T18:59:17.432Z,10.70
2022-12-12T19:01:44.640Z,12.32
2022-12-12T19:04:14.300Z,10.88
2022-12-12T19:06:43.859Z,10.13
2022-12-12T19:09:14.789Z,12.07
2022-12-12T19:11:41.790Z,12.10
2022-12-12T19:14:10.273Z,14.98
2022-12-12T19:16:36.775Z,14.45
2022-12-12T19:19:09.507Z,14.70
2022-12-12T19:21:37.545Z,14.85
2022-12-12T19:24:04.981Z,14.10
2022-12-12T19:26:31.555Z,13.85
2022-12-12T19:28:59.748Z,14.50
2022-12-12T19:31:26.878Z,15.27
2022-12-12T19:33:53.735Z,15.32
2022-12-12T19:36:23.690Z,14.25
2022-12-12T19:38:51.292Z,15.93
2022-12-12T19:41:20.595Z,13.60
2022-12-12T19:43:49.202Z,14.23
2022-12-12T19:46:21.063Z,13.48
2022-12-12T19:48:52.972Z,14.77
2022-12-12T19:51:22.464Z,15.20
2022-12-12T19:53:52.668Z,13.23
2022-12-12T19:56:21.754Z,12.20
2022-12-12T19:58:48.496Z,14.25
2022-12-12T20:01:20.944Z,15.80
2022-12-12T20:03:55.019Z,15.50
2022-12-12T20:06:22.805Z,14.15
2022-12-12T20:08:49.585Z,14.73
2022-12-12T20:11:21.072Z,13.10
2022-12-12T20:13:49.505Z,15.88
2022-12-12T20:16:18.293Z,17.45
2022-12-12T20:18:47.571Z,15.43
2022-12-12T20:21:36.289Z,15.00
2022-12-12T20:24:00.856Z,17.02
2022-12-12T20:26:32.082Z,16.40
2022-12-12T20:29:00.569Z,19.08
2022-12-12T20:31:30.225Z,18.63
2022-12-12T20:33:58.732Z,16.43
2022-12-12T20:36:28.489Z,17.17
2022-12-12T20:38:56.804Z,16.30
2022-12-12T20:41:30.097Z,17.15
2022-12-12T20:43:58.551Z,14.90
2022-12-12T20:46:29.752Z,15.33
2022-12-12T20:48:57.896Z,14.07
2022-12-12T20:51:54.699Z,15.55
2022-12-12T20:54:17.351Z,16.65
2022-12-12T20:56:46.445Z,15.30
2022-12-12T20:59:14.370Z,14.63
2022-12-12T21:01:41.700Z,14.93
2022-12-12T21:04:09.517Z,15.18
2022-12-12T21:06:39.448Z,15.60
2022-12-12T21:09:09.839Z,15.15
2022-12-12T21:11:38.152Z,16.27
2022-12-12T21:14:05.792Z,14.50
2022-12-12T21:16:35.503Z,14.70
2022-12-12T21:19:05.729Z,13.95
2022-12-12T21:21:32.927Z,13.27
2022-12-12T21:24:00.079Z,11.57
2022-12-12T21:26:30.197Z,14.75
2022-12-12T21:28:57.996Z,11.18
2022-12-12T21:31:31.878Z,11.65
2022-12-12T21:33:59.637Z,15.13
2022-12-12T21:36:28.209Z,13.00
2022-12-12T21:38:56.588Z,14.25
2022-12-12T21:41:23.855Z,12.73
2022-12-12T21:43:51.620Z,13.00
2022-12-12T21:46:21.168Z,12.68
2022-12-12T21:49:09.060Z,13.33
2022-12-12T21:51:36.053Z,13.98
2022-12-12T21:54:07.521Z,14.45
2022-12-12T21:56:34.562Z,11.27
2022-12-12T21:59:01.212Z,9.90
2022-12-12T22:01:28.009Z,13.17
2022-12-12T22:03:54.990Z,11.50
2022-12-12T22:06:24.009Z,10.27
2022-12-12T22:08:51.190Z,11.27
2022-12-12T22:11:33.966Z,11.63
2022-12-12T22:14:07.209Z,12.30
2022-12-12T22:16:34.459Z,11.45
2022-12-12T22:19:06.032Z,12.23
2022-12-12T22:21:33.877Z,10.45
2022-12-12T22:24:01.026Z,11.63
2022-12-12T22:26:31.106Z,11.73
2022-12-12T22:29:00.679Z,10.02
2022-12-12T22:31:29.879Z,9.98
2022-12-12T22:34:01.766Z,11.18
2022-12-12T22:36:30.590Z,9.45
2022-12-12T22:38:58.450Z,9.47
2022-12-12T22:41:26.438Z,7.72
2022-12-12T22:43:56.625Z,10.48
2022-12-12T22:46:25.329Z,9.60
2022-12-12T22:48:54.010Z,9.13
2022-12-12T22:51:23.286Z,10.37
2022-12-12T22:53:49.992Z,8.10
2022-12-12T22:56:17.042Z,9.40
2022-12-12T22:58:43.922Z,9.48
2022-12-12T23:01:14.261Z,9.23
2022-12-12T23:03:41.484Z,10.03
2022-12-12T23:06:13.491Z,9.80
2022-12-12T23:08:41.806Z,10.00
2022-12-12T23:11:11.559Z,9.63
2022-12-12T23:13:39.303Z,10.38
2022-12-12T23:16:10.545Z,9.63
2022-12-12T23:18:39.151Z,7.88
2022-12-12T23:21:12.140Z,8.43
2022-12-12T23:23:43.447Z,8.80
2022-12-12T23:26:12.646Z,10.70
2022-12-12T23:28:39.718Z,10.23
2022-12-12T23:31:13.665Z,10.05
2022-12-12T23:33:40.815Z,9.07
2022-12-12T23:36:12.100Z,9.75
2022-12-12T23:38:39.235Z,9.45
2022-12-12T23:41:07.737Z,10.30
2022-12-12T23:43:35.361Z,10.68
2022-12-12T23:46:04.069Z,10.02
2022-12-12T23:48:31.142Z,10.60
2022-12-12T23:50:58.864Z,8.85
2022-12-12T23:53:26.361Z,7.87
2022-12-12T23:55:53.497Z,10.52
2022-12-12T23:58:20.093Z,8.13
